Time;durP1;ratioP1;P1;durP2;ratioP2;P2;SDS_P1;SDS_P2;PMS_P1;PMS_P2;Temp;Humidity;BMP_temperature;BMP_pressure;BME280_temperature;BME280_humidity;BME280_pressure;Samples;Min_cycle;Max_cycle;Signal;HPM_P1;HPM_P2
2021/08/17 00:00:49;;;;;;;31.98;12.77;;;;;;;9.87;100.00;101713.09;5075100;28;20376;-63
2021/08/17 00:03:14;;;;;;;32.88;13.02;;;;;;;9.81;100.00;101709.41;5071161;28;20025;-63
2021/08/17 00:05:41;;;;;;;30.98;12.05;;;;;;;9.74;100.00;101705.75;5075196;28;20429;-63
2021/08/17 00:08:07;;;;;;;32.97;12.90;;;;;;;9.77;100.00;101705.81;5075298;28;20378;-63
2021/08/17 00:10:33;;;;;;;34.55;14.15;;;;;;;9.77;100.00;101700.53;5075381;28;20029;-63
2021/08/17 00:12:58;;;;;;;34.42;13.80;;;;;;;9.75;100.00;101702.25;5075331;28;20033;-63
2021/08/17 00:15:23;;;;;;;35.35;14.65;;;;;;;9.79;100.00;101711.16;5074963;28;20020;-63
2021/08/17 00:17:49;;;;;;;36.67;15.57;;;;;;;9.79;100.00;101704.09;5074645;28;20033;-64
2021/08/17 00:20:14;;;;;;;40.17;17.35;;;;;;;9.82;100.00;101705.94;5074803;28;20459;-63
2021/08/17 00:22:40;;;;;;;40.97;16.77;;;;;;;9.80;100.00;101705.91;5074805;28;20494;-63
2021/08/17 00:25:07;;;;;;;41.20;17.55;;;;;;;9.79;100.00;101706.75;5074836;28;20044;-64
2021/08/17 00:27:33;;;;;;;41.60;17.35;;;;;;;9.75;100.00;101703.13;5073589;28;20043;-63
2021/08/17 00:29:58;;;;;;;43.15;18.13;;;;;;;9.74;100.00;101701.38;5073258;28;20045;-61
2021/08/17 00:32:24;;;;;;;45.08;19.73;;;;;;;9.74;100.00;101701.38;5074773;28;20025;-63
2021/08/17 00:34:49;;;;;;;46.95;20.05;;;;;;;9.75;100.00;101696.97;5074715;28;20103;-63
2021/08/17 00:37:17;;;;;;;46.33;19.80;;;;;;;9.70;100.00;101693.38;5070709;28;20479;-63
2021/08/17 00:39:43;;;;;;;48.45;21.20;;;;;;;9.67;100.00;101691.53;5074651;28;20409;-63
2021/08/17 00:42:09;;;;;;;49.50;21.30;;;;;;;9.66;100.00;101688.88;5074334;28;20021;-64
2021/08/17 00:44:35;;;;;;;56.97;23.70;;;;;;;9.71;100.00;101682.84;5074570;28;20079;-64
2021/08/17 00:47:00;;;;;;;57.88;22.73;;;;;;;9.67;100.00;101685.34;5074320;28;20078;-64
2021/08/17 00:49:27;;;;;;;59.75;25.40;;;;;;;9.73;100.00;101683.75;5074129;28;20418;-64
2021/08/17 00:51:54;;;;;;;56.35;25.00;;;;;;;9.75;100.00;101683.78;5074383;28;20459;-64
2021/08/17 00:54:20;;;;;;;67.60;27.50;;;;;;;9.82;100.00;101684.81;5074303;28;20104;-64
2021/08/17 00:56:47;;;;;;;71.60;28.83;;;;;;;9.86;100.00;101676.97;5070233;28;20038;-64
2021/08/17 00:59:12;;;;;;;74.03;29.48;;;;;;;9.88;100.00;101674.34;5074219;28;20099;-64
2021/08/17 01:01:39;;;;;;;76.80;31.15;;;;;;;9.93;100.00;101672.69;5074253;28;20028;-64
2021/08/17 01:04:09;;;;;;;77.78;31.17;;;;;;;9.95;100.00;101668.34;5073923;28;20036;-64
2021/08/17 01:06:35;;;;;;;86.22;33.40;;;;;;;10.02;100.00;101670.25;5074136;28;20017;-64
2021/08/17 01:09:01;;;;;;;92.43;33.55;;;;;;;10.04;100.00;101665.88;5074081;28;20025;-64
2021/08/17 01:11:26;;;;;;;92.18;34.28;;;;;;;10.09;100.00;101666.88;5073709;28;20086;-64
2021/08/17 01:13:52;;;;;;;91.78;34.45;;;;;;;10.17;100.00;101663.47;5074065;28;20028;-64
2021/08/17 01:16:22;;;;;;;97.20;34.40;;;;;;;10.21;100.00;101667.97;5074072;28;20031;-64
2021/08/17 01:18:48;;;;;;;98.93;36.05;;;;;;;10.36;100.00;101675.31;5069861;28;20020;-64
2021/08/17 01:21:14;;;;;;;100.07;35.25;;;;;;;10.40;100.00;101671.88;5073772;28;20062;-64
2021/08/17 01:23:40;;;;;;;91.32;33.83;;;;;;;10.43;100.00;101669.28;5073454;28;20051;-65
2021/08/17 01:26:06;;;;;;;88.57;34.03;;;;;;;10.44;100.00;101669.31;5073571;28;20036;-65
2021/08/17 01:28:31;;;;;;;95.30;35.65;;;;;;;10.46;100.00;101672.84;5072946;28;20035;-64
2021/08/17 01:31:07;;;;;;;89.93;34.78;;;;;;;10.47;100.00;101673.78;5073319;28;20033;-63
2021/08/17 01:33:34;;;;;;;87.97;34.95;;;;;;;10.51;100.00;101682.63;5073231;28;20494;-63
2021/08/17 01:36:02;;;;;;;89.40;34.70;;;;;;;10.56;100.00;101681.84;5073395;28;20028;-64
2021/08/17 01:38:28;;;;;;;91.53;35.42;;;;;;;10.53;100.00;101688.81;5073819;28;20021;-63
2021/08/17 01:40:54;;;;;;;91.32;35.47;;;;;;;10.55;100.00;101688.00;5073418;28;20028;-62
2021/08/17 01:43:20;;;;;;;94.68;35.97;;;;;;;10.56;100.00;101680.97;5073430;28;20042;-63
2021/08/17 01:45:59;;;;;;;96.95;37.42;;;;;;;10.58;100.00;101687.16;5073736;28;20075;-63
2021/08/17 01:48:26;;;;;;;90.00;35.40;;;;;;;10.59;100.00;101683.66;5070225;28;20043;-63
2021/08/17 01:50:52;;;;;;;91.25;35.13;;;;;;;10.60;100.00;101678.41;5072814;28;20042;-63
2021/08/17 01:53:18;;;;;;;94.90;35.70;;;;;;;10.68;100.00;101683.81;5073550;28;20078;-63
2021/08/17 01:55:43;;;;;;;102.18;37.78;;;;;;;10.72;100.00;101675.06;5073040;28;20029;-63
2021/08/17 01:58:08;;;;;;;89.22;35.58;;;;;;;10.79;100.00;101676.06;5072959;28;20021;-63
2021/08/17 02:00:34;;;;;;;92.28;36.88;;;;;;;10.86;100.00;101683.22;5073067;28;20054;-64
2021/08/17 02:02:59;;;;;;;94.47;38.38;;;;;;;10.92;100.00;101683.34;5072800;28;20017;-64
2021/08/17 02:05:25;;;;;;;94.05;35.70;;;;;;;11.00;100.00;101678.16;5073110;28;20021;-64
2021/08/17 02:07:53;;;;;;;97.55;37.67;;;;;;;11.04;100.00;101684.38;5073142;28;20024;-63
2021/08/17 02:10:18;;;;;;;89.80;36.70;;;;;;;11.08;100.00;101689.78;5069373;28;20028;-64
2021/08/17 02:12:44;;;;;;;98.03;38.22;;;;;;;11.15;100.00;101686.38;5072872;28;20039;-64
2021/08/17 02:15:10;;;;;;;91.13;37.15;;;;;;;11.23;100.00;101688.25;5072859;28;20077;-60
2021/08/17 02:17:35;;;;;;;91.88;36.95;;;;;;;11.26;100.00;101686.50;5072517;28;20024;-60
2021/08/17 02:20:01;;;;;;;89.22;36.25;;;;;;;11.32;100.00;101699.81;5072968;28;20374;-61
2021/08/17 02:22:26;;;;;;;94.13;39.35;;;;;;;11.34;100.00;101689.25;5072811;28;20029;-64
2021/08/17 02:24:52;;;;;;;91.10;35.35;;;;;;;11.28;100.00;101681.25;5072534;28;20045;-62
2021/08/17 02:27:17;;;;;;;83.60;36.72;;;;;;;11.24;100.00;101685.63;5072880;28;20029;-64
2021/08/17 02:29:42;;;;;;;89.45;37.10;;;;;;;11.16;100.00;101688.13;5072808;28;20039;-65
2021/08/17 02:32:08;;;;;;;92.30;37.92;;;;;;;11.11;100.00;101695.13;5072433;28;20494;-64
2021/08/17 02:34:33;;;;;;;100.25;37.72;;;;;;;11.05;100.00;101695.00;5072615;28;20032;-63
2021/08/17 02:36:58;;;;;;;92.05;36.40;;;;;;;11.03;100.00;101690.56;5072470;28;20103;-64
2021/08/17 02:39:24;;;;;;;92.95;36.53;;;;;;;11.00;100.00;101680.81;5072457;28;20051;-63
2021/08/17 02:41:49;;;;;;;101.10;38.08;;;;;;;11.03;100.00;101691.44;5072557;28;20043;-63
2021/08/17 02:44:14;;;;;;;97.88;39.80;;;;;;;11.08;100.00;101683.56;5072703;28;20043;-63
2021/08/17 02:46:40;;;;;;;100.88;38.63;;;;;;;11.05;100.00;101697.63;5072365;28;20028;-64
2021/08/17 02:49:05;;;;;;;101.68;40.75;;;;;;;11.03;100.00;101688.78;5072418;28;20032;-64
2021/08/17 02:51:31;;;;;;;96.72;38.85;;;;;;;11.02;100.00;101684.38;5072453;28;20029;-64
2021/08/17 02:53:56;;;;;;;100.88;39.15;;;;;;;11.01;100.00;101692.28;5072548;28;20422;-61
2021/08/17 02:56:21;;;;;;;99.40;39.30;;;;;;;11.02;100.00;101692.31;5071155;28;20090;-68
2021/08/17 02:58:47;;;;;;;100.07;40.85;;;;;;;11.02;100.00;101684.38;5072570;28;20029;-61
2021/08/17 03:01:12;;;;;;;98.22;39.30;;;;;;;11.04;100.00;101690.59;5072406;28;20448;-66
2021/08/17 03:03:37;;;;;;;103.05;40.35;;;;;;;11.05;100.00;101689.69;5072308;28;20379;-64
2021/08/17 03:06:03;;;;;;;102.72;39.70;;;;;;;11.04;100.00;101692.31;5072207;28;20032;-64
2021/08/17 03:08:28;;;;;;;101.90;38.03;;;;;;;11.01;100.00;101685.25;5072458;28;20021;-63
2021/08/17 03:10:53;;;;;;;101.45;40.38;;;;;;;11.04;100.00;101694.97;5072134;28;20106;-63
2021/08/17 03:13:19;;;;;;;108.35;41.35;;;;;;;11.00;100.00;101694.03;5072196;28;20480;-61
2021/08/17 03:15:44;;;;;;;111.13;41.97;;;;;;;11.02;100.00;101687.00;5072357;28;20368;-61
2021/08/17 03:18:10;;;;;;;103.43;39.97;;;;;;;10.98;100.00;101682.56;5072064;28;20029;-63
2021/08/17 03:20:36;;;;;;;98.47;39.22;;;;;;;10.96;100.00;101690.44;5071842;28;20056;-63
2021/08/17 03:23:03;;;;;;;108.30;40.97;;;;;;;10.96;100.00;101685.16;5072473;28;20029;-61
2021/08/17 03:25:29;;;;;;;104.10;38.20;;;;;;;10.94;100.00;101672.78;5071992;28;20479;-63
2021/08/17 03:27:55;;;;;;;110.28;40.55;;;;;;;10.96;100.00;101673.69;5072284;28;20028;-63
2021/08/17 03:30:23;;;;;;;108.32;40.00;;;;;;;10.95;100.00;101677.19;5072465;28;20025;-63
2021/08/17 03:32:49;;;;;;;106.68;40.47;;;;;;;10.96;100.00;101682.50;5068124;28;20020;-62
2021/08/17 03:35:15;;;;;;;111.03;41.10;;;;;;;10.97;100.00;101680.78;5071804;28;20040;-63
2021/08/17 03:37:41;;;;;;;106.13;40.20;;;;;;;10.99;100.00;101668.44;5072091;28;20048;-61
2021/08/17 03:40:09;;;;;;;102.65;39.25;;;;;;;10.96;100.00;101669.28;5071892;28;20060;-62
2021/08/17 03:42:35;;;;;;;106.70;40.38;;;;;;;11.03;100.00;101672.03;5071631;28;20070;-63
2021/08/17 03:45:01;;;;;;;105.15;39.30;;;;;;;10.99;100.00;101686.97;5071967;28;20036;-63
2021/08/17 03:47:27;;;;;;;114.97;42.00;;;;;;;10.98;100.00;101669.34;5071878;28;20025;-63
2021/08/17 03:49:52;;;;;;;109.43;40.92;;;;;;;10.93;100.00;101661.28;5071592;28;20042;-64
2021/08/17 03:52:17;;;;;;;101.38;38.63;;;;;;;10.93;100.00;101663.06;5073183;28;20025;-64
2021/08/17 03:54:43;;;;;;;108.00;40.45;;;;;;;10.90;100.00;101663.03;5075310;28;20097;-60
2021/08/17 03:57:08;;;;;;;111.68;40.13;;;;;;;10.88;100.00;101665.66;5075192;28;20028;-61
2021/08/17 03:59:33;;;;;;;110.30;40.50;;;;;;;10.88;100.00;101664.72;5075393;28;20029;-61
2021/08/17 04:01:59;;;;;;;107.82;39.58;;;;;;;10.82;100.00;101661.13;5075180;28;20024;-60
2021/08/17 04:04:24;;;;;;;105.28;38.33;;;;;;;10.79;100.00;101654.91;5075343;28;20024;-60
2021/08/17 04:06:49;;;;;;;112.18;39.15;;;;;;;10.76;100.00;101658.41;5075292;28;20348;-61
2021/08/17 04:09:15;;;;;;;105.63;38.35;;;;;;;10.73;100.00;101655.72;5075056;28;20063;-61
2021/08/17 04:11:40;;;;;;;103.72;38.70;;;;;;;10.70;100.00;101657.41;5075369;28;20021;-60
2021/08/17 04:14:05;;;;;;;116.22;41.10;;;;;;;10.72;100.00;101658.34;5075097;28;20037;-61
2021/08/17 04:16:31;;;;;;;113.65;39.25;;;;;;;10.70;100.00;101666.22;5075240;28;20016;-60
2021/08/17 04:18:56;;;;;;;115.03;39.10;;;;;;;10.65;100.00;101675.84;5075140;28;20056;-61
2021/08/17 04:21:21;;;;;;;112.07;39.05;;;;;;;10.61;100.00;101671.34;5074625;28;20024;-61
2021/08/17 04:23:48;;;;;;;109.30;38.05;;;;;;;10.59;100.00;101675.72;5074623;28;20503;-61
2021/08/17 04:26:13;;;;;;;107.35;37.70;;;;;;;10.58;100.00;101688.03;5074928;28;20052;-61
2021/08/17 04:28:38;;;;;;;115.40;40.25;;;;;;;10.55;100.00;101689.75;5074859;28;20541;-61
2021/08/17 04:31:04;;;;;;;116.40;39.13;;;;;;;10.56;100.00;101686.25;5075064;28;20034;-60
2021/08/17 04:33:29;;;;;;;109.15;38.05;;;;;;;10.61;100.00;101687.22;5074453;28;20059;-61
2021/08/17 04:35:54;;;;;;;111.65;37.80;;;;;;;10.62;100.00;101694.28;5074600;28;20032;-64
2021/08/17 04:38:20;;;;;;;113.55;37.70;;;;;;;10.62;100.00;101689.88;5074592;28;20059;-64
2021/08/17 04:40:45;;;;;;;113.40;39.50;;;;;;;10.65;100.00;101694.34;5074741;28;20020;-64
2021/08/17 04:43:11;;;;;;;108.78;38.45;;;;;;;10.63;100.00;101693.44;5074569;28;20021;-64
2021/08/17 04:45:37;;;;;;;117.00;39.88;;;;;;;10.67;100.00;101697.91;5074507;28;20056;-64
2021/08/17 04:48:03;;;;;;;110.57;38.78;;;;;;;10.66;100.00;101692.56;5074621;28;20119;-64
2021/08/17 04:50:28;;;;;;;120.78;39.17;;;;;;;10.68;100.00;101689.09;5074490;28;20071;-64
2021/08/17 04:52:54;;;;;;;104.78;37.05;;;;;;;10.71;100.00;101685.63;5074308;28;20111;-64
2021/08/17 04:55:20;;;;;;;105.20;36.40;;;;;;;10.72;100.00;101690.94;5074391;28;20028;-64
2021/08/17 04:57:47;;;;;;;109.70;36.58;;;;;;;10.76;100.00;101692.78;5074319;28;20078;-64
2021/08/17 05:00:14;;;;;;;100.38;36.25;;;;;;;10.75;100.00;101691.00;5074216;28;20418;-64
2021/08/17 05:02:39;;;;;;;95.70;35.95;;;;;;;10.78;100.00;101696.31;5073945;28;20028;-64
2021/08/17 05:05:05;;;;;;;97.57;35.22;;;;;;;10.80;100.00;101694.63;5073256;28;20185;-64
2021/08/17 05:07:30;;;;;;;102.80;36.30;;;;;;;10.83;100.00;101696.41;5074368;28;20174;-64
2021/08/17 05:09:55;;;;;;;96.38;35.05;;;;;;;10.86;100.00;101703.50;5073755;28;20110;-64
2021/08/17 05:12:21;;;;;;;99.50;34.83;;;;;;;10.89;100.00;101703.56;5073720;28;20023;-63
2021/08/17 05:14:46;;;;;;;89.22;33.40;;;;;;;10.92;100.00;101696.56;5074209;28;20035;-62
2021/08/17 05:17:11;;;;;;;92.78;34.38;;;;;;;10.95;100.00;101703.66;5073831;28;20021;-63
2021/08/17 05:19:36;;;;;;;88.97;32.95;;;;;;;10.99;100.00;101698.47;5073900;28;20028;-63
2021/08/17 05:22:02;;;;;;;84.63;33.03;;;;;;;11.05;100.00;101708.22;5074025;28;20360;-63
2021/08/17 05:24:27;;;;;;;84.78;33.00;;;;;;;11.10;100.00;101709.19;5073318;28;20062;-63
2021/08/17 05:26:53;;;;;;;89.72;33.50;;;;;;;11.18;100.00;101708.44;5074078;28;20024;-63
2021/08/17 05:29:18;;;;;;;83.75;31.70;;;;;;;11.27;100.00;101712.13;5073598;28;20115;-64
2021/08/17 05:31:43;;;;;;;78.72;30.48;;;;;;;11.35;100.00;101709.56;5072304;28;20039;-61
2021/08/17 05:34:09;;;;;;;73.97;30.38;;;;;;;11.42;100.00;101715.88;5068432;28;20033;-60
2021/08/17 05:36:34;;;;;;;77.10;30.63;;;;;;;11.47;100.00;101709.75;5071287;28;20056;-61
2021/08/17 05:38:59;;;;;;;74.97;30.85;;;;;;;11.52;100.00;101708.06;5073137;28;20032;-61
2021/08/17 05:41:25;;;;;;;76.43;30.17;;;;;;;11.56;100.00;101714.28;5080072;28;20030;-60
2021/08/17 05:43:50;;;;;;;72.40;30.50;;;;;;;11.62;100.00;101711.75;5081708;28;20020;-60
2021/08/17 05:46:15;;;;;;;70.35;29.20;;;;;;;11.67;100.00;101722.38;5079941;28;20040;-61
2021/08/17 05:48:41;;;;;;;68.63;30.15;;;;;;;11.74;100.00;101720.72;5078894;28;20051;-60
2021/08/17 05:51:07;;;;;;;68.95;29.17;;;;;;;11.78;100.00;101710.19;5075191;28;20051;-60
2021/08/17 05:53:32;;;;;;;66.85;29.35;;;;;;;11.84;100.00;101710.25;5076304;28;20058;-60
2021/08/17 05:55:58;;;;;;;65.70;29.15;;;;;;;11.92;100.00;101706.81;5076455;28;20052;-60
2021/08/17 05:58:23;;;;;;;64.95;28.35;;;;;;;11.96;100.00;101703.38;5079444;28;20028;-60
2021/08/17 06:00:48;;;;;;;66.57;29.13;;;;;;;12.00;100.00;101705.19;5080649;28;20044;-60
2021/08/17 06:03:14;;;;;;;62.13;27.85;;;;;;;12.06;100.00;101699.97;5078160;28;20040;-61
2021/08/17 06:05:39;;;;;;;66.07;27.92;;;;;;;12.12;100.00;101705.34;5079733;28;20032;-61
2021/08/17 06:08:05;;;;;;;69.55;29.85;;;;;;;12.17;100.00;101692.13;5074580;28;20049;-60
2021/08/17 06:10:30;;;;;;;62.08;28.52;;;;;;;12.23;100.00;101693.97;5078872;28;20032;-60
2021/08/17 06:12:55;;;;;;;63.60;29.05;;;;;;;12.29;100.00;101704.63;5077522;28;20024;-60
2021/08/17 06:15:21;;;;;;;63.53;27.25;;;;;;;12.31;100.00;101697.59;5077329;28;20077;-61
2021/08/17 06:17:47;;;;;;;64.93;27.17;;;;;;;12.32;100.00;101704.66;5080302;28;20028;-61
2021/08/17 06:20:13;;;;;;;61.25;27.98;;;;;;;12.34;100.00;101700.28;5077853;28;20469;-59
2021/08/17 06:22:39;;;;;;;62.95;27.67;;;;;;;12.36;100.00;101702.06;5080557;28;20102;-60
2021/08/17 06:25:05;;;;;;;62.53;27.58;;;;;;;12.47;100.00;101694.22;5080534;28;20047;-60
2021/08/17 06:27:30;;;;;;;58.55;27.35;;;;;;;12.57;100.00;101689.91;5078323;28;20028;-60
2021/08/17 06:29:56;;;;;;;58.30;27.67;;;;;;;12.67;100.00;101693.53;5077374;28;20028;-61
2021/08/17 06:32:21;;;;;;;58.38;27.15;;;;;;;12.66;100.00;101681.13;5078004;28;20025;-60
2021/08/17 06:34:47;;;;;;;56.55;26.98;;;;;;;12.66;100.00;101679.38;5076977;28;20503;-60
2021/08/17 06:37:12;;;;;;;60.03;27.42;;;;;;;12.68;100.00;101682.03;5078783;28;20060;-61
2021/08/17 06:39:38;;;;;;;60.10;27.63;;;;;;;12.67;100.00;101682.94;5077127;28;20101;-61
2021/08/17 06:42:05;;;;;;;54.45;25.83;;;;;;;12.65;100.00;101682.00;5076298;28;20115;-61
2021/08/17 06:44:30;;;;;;;57.60;26.88;;;;;;;12.63;100.00;101671.38;5076625;28;20036;-60
2021/08/17 06:46:56;;;;;;;60.95;29.10;;;;;;;12.64;100.00;101673.16;5079245;28;20020;-60
2021/08/17 06:49:21;;;;;;;58.10;28.38;;;;;;;12.70;100.00;101677.66;5073996;28;20052;-60
2021/08/17 06:51:46;;;;;;;60.08;28.90;;;;;;;12.77;100.00;101673.25;5076980;28;20025;-60
2021/08/17 06:54:12;;;;;;;57.50;27.67;;;;;;;12.88;100.00;101675.13;5076669;28;20406;-60
2021/08/17 06:56:37;;;;;;;61.17;27.75;;;;;;;12.97;100.00;101684.03;5077462;28;20119;-59
2021/08/17 06:59:02;;;;;;;56.40;27.50;;;;;;;13.01;100.00;101689.38;5077818;28;20054;-60
2021/08/17 07:01:28;;;;;;;61.78;28.02;;;;;;;13.12;100.00;101702.75;5076915;28;20070;-61
2021/08/17 07:03:53;;;;;;;56.80;28.52;;;;;;;13.15;100.00;101702.78;5075707;28;20074;-61
2021/08/17 07:06:18;;;;;;;56.00;27.45;;;;;;;13.21;100.00;101710.78;5077004;28;20029;-63
2021/08/17 07:08:44;;;;;;;57.80;27.13;;;;;;;13.22;100.00;101715.22;5075048;28;20028;-62
2021/08/17 07:11:09;;;;;;;57.55;28.15;;;;;;;13.28;100.00;101710.81;5076736;28;20119;-62
2021/08/17 07:13:35;;;;;;;52.15;26.23;;;;;;;13.33;100.00;101707.31;5073031;28;20062;-61
2021/08/17 07:16:01;;;;;;;54.03;26.80;;;;;;;13.39;100.00;101715.34;5079467;28;20115;-60
2021/08/17 07:18:26;;;;;;;56.53;26.90;;;;;;;13.52;100.00;101718.09;5076398;28;20123;-61
2021/08/17 07:20:52;;;;;;;51.20;26.13;;;;;;;13.58;100.00;101713.69;5079755;28;20074;-61
2021/08/17 07:23:18;;;;;;;55.60;27.70;;;;;;;13.56;100.00;101704.84;5075109;28;20047;-60
2021/08/17 07:25:43;;;;;;;52.75;26.52;;;;;;;13.64;100.00;101711.97;5076496;28;20060;-61
2021/08/17 07:28:12;;;;;;;51.85;27.35;;;;;;;13.63;100.00;101711.09;5073802;28;20379;-60
2021/08/17 07:30:39;;;;;;;51.42;25.92;;;;;;;13.72;100.00;101723.53;5080621;28;20040;-60
2021/08/17 07:33:04;;;;;;;50.55;25.25;;;;;;;13.83;100.00;101739.50;5079892;28;20020;-61
2021/08/17 07:35:30;;;;;;;58.60;28.63;;;;;;;13.91;100.00;101738.66;5082620;28;20016;-61
2021/08/17 07:37:55;;;;;;;49.08;25.15;;;;;;;14.00;100.00;101736.94;5079218;28;20475;-61
2021/08/17 07:40:21;;;;;;;49.50;25.48;;;;;;;14.01;100.00;101728.97;5079688;28;20029;-61
2021/08/17 07:42:46;;;;;;;47.78;24.25;;;;;;;14.12;100.00;101710.38;5080137;28;20387;-64
2021/08/17 07:45:13;;;;;;;45.60;22.98;;;;;;;14.26;100.00;101684.72;5082368;28;20099;-64
2021/08/17 07:47:39;;;;;;;48.88;24.10;;;;;;;14.33;100.00;101675.00;5078836;28;20145;-64
2021/08/17 07:50:06;;;;;;;46.42;23.35;;;;;;;14.43;100.00;101681.22;5080442;28;20115;-65
2021/08/17 07:52:35;;;;;;;46.38;22.98;;;;;;;14.55;100.00;101683.03;5080848;28;20023;-64
2021/08/17 07:55:01;;;;;;;46.17;22.23;;;;;;;14.68;100.00;101698.16;5075087;28;20039;-63
2021/08/17 07:57:29;;;;;;;39.17;19.77;;;;;;;14.62;99.82;101691.03;5075149;28;20024;-65
2021/08/17 07:59:54;;;;;;;41.38;19.75;;;;;;;14.64;99.32;101678.63;5075062;28;20467;-65
2021/08/17 08:02:19;;;;;;;42.05;20.35;;;;;;;14.81;99.76;101688.41;5074790;28;20027;-64
2021/08/17 08:04:45;;;;;;;39.42;19.23;;;;;;;14.91;94.80;101683.94;5075234;28;20107;-64
2021/08/17 08:07:10;;;;;;;38.47;18.58;;;;;;;14.91;93.74;101684.84;5075177;28;20031;-65
2021/08/17 08:09:35;;;;;;;39.92;20.45;;;;;;;14.85;94.18;101676.84;5075031;28;20031;-64
2021/08/17 08:12:01;;;;;;;40.33;20.23;;;;;;;14.96;95.54;101667.06;5075115;28;20463;-65
2021/08/17 08:14:26;;;;;;;39.38;19.90;;;;;;;15.09;93.07;101683.94;5075177;28;20055;-64
2021/08/17 08:16:52;;;;;;;36.92;17.65;;;;;;;15.17;90.95;101667.94;5075171;28;20035;-65
2021/08/17 08:19:18;;;;;;;35.97;17.10;;;;;;;15.18;91.83;101672.38;5075339;28;20082;-64
2021/08/17 08:21:43;;;;;;;37.22;19.23;;;;;;;15.18;89.68;101674.19;5074890;28;20013;-65
2021/08/17 08:24:08;;;;;;;36.33;18.05;;;;;;;15.39;90.15;101678.56;5074736;28;20037;-65
2021/08/17 08:26:34;;;;;;;36.33;17.85;;;;;;;15.60;87.91;101691.81;5075278;28;20418;-64
2021/08/17 08:28:59;;;;;;;41.20;18.77;;;;;;;16.28;84.63;101696.91;5074818;28;20016;-64
2021/08/17 08:31:24;;;;;;;36.08;17.77;;;;;;;16.86;82.41;101702.72;5074769;28;20134;-65
2021/08/17 08:33:50;;;;;;;35.80;16.15;;;;;;;17.16;78.52;101692.69;5074739;28;20058;-65
2021/08/17 08:36:15;;;;;;;34.22;17.75;;;;;;;17.02;76.96;101692.81;5074609;28;20150;-66
2021/08/17 08:38:41;;;;;;;34.00;16.50;;;;;;;16.59;78.48;101686.00;5074222;28;20364;-65
2021/08/17 08:41:07;;;;;;;31.45;16.10;;;;;;;16.29;80.38;101682.63;5074997;28;20063;-65
2021/08/17 08:43:32;;;;;;;33.78;16.48;;;;;;;16.22;81.79;101678.25;5074413;28;20025;-65
2021/08/17 08:45:57;;;;;;;31.90;16.42;;;;;;;16.09;80.26;101687.22;5074221;28;20029;-64
2021/08/17 08:48:23;;;;;;;33.60;17.42;;;;;;;15.90;80.89;101682.00;5074803;28;20027;-65
2021/08/17 08:50:50;;;;;;;34.33;17.73;;;;;;;15.82;80.54;101694.44;5074477;28;20044;-65
2021/08/17 08:53:16;;;;;;;32.85;16.83;;;;;;;15.82;80.19;101702.44;5074389;28;20056;-64
2021/08/17 08:55:44;;;;;;;32.55;16.50;;;;;;;15.83;79.52;101685.56;5074450;28;20020;-65
2021/08/17 08:58:10;;;;;;;32.95;16.77;;;;;;;15.86;81.40;101680.22;5074064;28;20024;-64
2021/08/17 09:00:35;;;;;;;33.17;17.92;;;;;;;15.82;81.08;101684.66;5074069;28;20020;-65
2021/08/17 09:03:00;;;;;;;33.00;17.10;;;;;;;15.96;79.64;101692.63;5074509;28;20024;-64
2021/08/17 09:05:26;;;;;;;33.20;17.92;;;;;;;15.79;79.83;101699.81;5074216;28;20025;-64
2021/08/17 09:07:53;;;;;;;30.17;15.95;;;;;;;15.63;78.73;101683.81;5074444;28;20021;-65
2021/08/17 09:10:27;;;;;;;30.95;15.95;;;;;;;15.52;80.50;101690.94;5074036;28;20437;-65
2021/08/17 09:12:53;;;;;;;33.38;16.52;;;;;;;15.52;79.80;101693.63;5074066;28;20017;-64
2021/08/17 09:15:20;;;;;;;31.85;17.15;;;;;;;15.43;81.33;101706.97;5074078;28;20024;-65
2021/08/17 09:18:06;;;;;;;32.63;17.90;;;;;;;15.46;81.76;101714.94;5073990;28;20082;-65
2021/08/17 09:20:46;;;;;;;32.00;18.17;;;;;;;15.51;83.04;101708.72;5073969;28;20029;-64
2021/08/17 09:23:27;;;;;;;32.50;17.83;;;;;;;15.64;83.02;101714.00;5069044;28;20117;-64
2021/08/17 09:25:55;;;;;;;31.50;17.10;;;;;;;15.78;81.88;101701.56;5070975;28;20056;-64
2021/08/17 09:28:37;;;;;;;34.10;18.60;;;;;;;15.85;79.77;101713.09;5073461;28;20032;-64
2021/08/17 09:31:24;;;;;;;31.42;17.25;;;;;;;15.76;79.67;101726.44;5073054;28;20030;-64
2021/08/17 09:33:50;;;;;;;31.98;17.00;;;;;;;15.78;79.98;101730.88;5070058;28;20056;-64
2021/08/17 09:36:15;;;;;;;33.20;17.23;;;;;;;15.69;79.71;101728.22;5073935;28;20032;-63
2021/08/17 09:38:41;;;;;;;31.05;16.67;;;;;;;15.55;79.98;101730.91;5073582;28;20461;-64
2021/08/17 09:41:23;;;;;;;31.52;16.38;;;;;;;15.45;82.47;101722.06;5073329;28;20017;-64
2021/08/17 09:43:55;;;;;;;;;;;;;;;15.46;80.80;101720.28;5071027;28;20091;-61
2021/08/17 09:46:26;;;;;;;30.17;16.23;;;;;;;15.20;81.00;101696.34;5073521;28;19913;-62
2021/08/17 09:48:51;;;;;;;28.70;15.80;;;;;;;15.12;82.38;101693.69;5073331;28;20425;-61
2021/08/17 09:51:34;;;;;;;29.23;15.25;;;;;;;15.08;82.04;101699.91;5072367;28;20029;-61
2021/08/17 09:54:21;;;;;;;30.75;15.93;;;;;;;15.05;82.96;101694.59;5073307;28;20038;-61
2021/08/17 09:57:04;;;;;;;32.15;16.33;;;;;;;15.02;84.07;101697.28;5069683;28;20475;-61
2021/08/17 09:59:34;;;;;;;29.58;15.48;;;;;;;14.98;84.46;101693.69;5072838;28;20031;-61
2021/08/17 10:02:00;;;;;;;28.83;15.40;;;;;;;15.03;84.02;101688.38;5073025;28;20032;-63
2021/08/17 10:04:26;;;;;;;30.33;16.90;;;;;;;15.14;83.50;101694.56;5073282;28;20036;-61
2021/08/17 10:06:54;;;;;;;30.27;16.40;;;;;;;15.13;81.70;101698.13;5073197;28;20028;-61
2021/08/17 10:09:22;;;;;;;29.23;15.48;;;;;;;15.21;81.69;101701.66;5072868;28;20027;-61
2021/08/17 10:11:48;;;;;;;30.02;15.85;;;;;;;15.27;81.27;101695.44;5073239;28;20375;-61
2021/08/17 10:14:14;;;;;;;29.73;17.23;;;;;;;15.30;81.57;101698.09;5072648;28;20103;-61
2021/08/17 10:16:41;;;;;;;30.67;17.10;;;;;;;15.26;80.63;101693.66;5072996;28;20163;-61
2021/08/17 10:19:08;;;;;;;28.98;16.42;;;;;;;15.07;81.56;101690.16;5072945;28;20029;-61
2021/08/17 10:21:33;;;;;;;31.98;17.08;;;;;;;14.95;83.53;101699.91;5072720;28;20055;-61
2021/08/17 10:23:59;;;;;;;30.13;17.20;;;;;;;14.89;83.38;101683.94;5072639;28;20498;-61
2021/08/17 10:26:29;;;;;;;33.35;17.17;;;;;;;14.84;85.29;101701.72;5072941;28;20055;-61
2021/08/17 10:28:55;;;;;;;27.83;15.50;;;;;;;14.84;82.83;101706.13;5072508;28;20082;-61
2021/08/17 10:31:23;;;;;;;30.60;16.48;;;;;;;14.80;85.00;101694.59;5072690;28;20032;-61
2021/08/17 10:33:51;;;;;;;29.20;16.52;;;;;;;14.79;83.61;101692.81;5072682;28;20020;-62
2021/08/17 10:36:45;;;;;;;29.08;16.35;;;;;;;14.80;82.32;101683.97;5072673;28;20059;-61
2021/08/17 10:39:16;;;;;;;30.17;16.55;;;;;;;14.84;83.38;101676.84;5072566;28;20540;-62
2021/08/17 10:41:42;;;;;;;32.38;17.50;;;;;;;14.86;83.71;101665.31;5068405;28;20475;-65
2021/08/17 10:44:09;;;;;;;31.05;17.48;;;;;;;14.96;83.49;101666.22;5072590;28;20024;-61
2021/08/17 10:46:39;;;;;;;31.40;16.92;;;;;;;14.98;82.69;101661.75;5072552;28;20486;-62
2021/08/17 10:49:30;;;;;;;28.65;15.55;;;;;;;15.07;82.68;101667.09;5072444;28;20138;-61
2021/08/17 10:52:00;;;;;;;28.15;15.55;;;;;;;15.15;82.78;101645.75;5070115;28;20028;-62
2021/08/17 10:54:26;;;;;;;30.60;16.27;;;;;;;15.16;80.83;101650.22;5072379;28;20040;-62
2021/08/17 10:56:52;;;;;;;29.13;16.58;;;;;;;15.19;81.29;101650.19;5072492;28;20032;-62
2021/08/17 10:59:37;;;;;;;30.55;17.27;;;;;;;15.33;81.13;101652.81;5072445;28;20020;-61